Time;durP1;ratioP1;P1;durP2;ratioP2;P2;SDS_P1;SDS_P2;PMS_P1;PMS_P2;Temp;Humidity;BMP_temperature;BMP_pressure;BME280_temperature;BME280_humidity;BME280_pressure;Samples;Min_cycle;Max_cycle;Signal;HPM_P1;HPM_P2
2022/05/10 00:03:36;;;;;;;5.03;2.20;;;17.10;99.90;;;;;;12477499;28;20049;-39
2022/05/10 00:09:38;;;;;;;4.25;2.10;;;17.00;99.90;;;;;;12479017;28;20099;-38
2022/05/10 00:15:41;;;;;;;6.13;2.80;;;16.90;99.90;;;;;;12475492;28;20059;-39
2022/05/10 00:21:44;;;;;;;5.30;2.43;;;16.80;99.90;;;;;;12475229;28;20406;-38
2022/05/10 00:27:47;;;;;;;7.18;2.42;;;16.70;99.90;;;;;;12475978;28;20141;-39
2022/05/10 00:33:49;;;;;;;5.35;2.40;;;16.70;99.90;;;;;;12476432;28;20140;-40
2022/05/10 00:39:51;;;;;;;4.53;2.45;;;16.70;99.90;;;;;;12474267;28;20076;-40
2022/05/10 00:45:59;;;;;;;4.68;2.40;;;16.70;99.90;;;;;;12476117;28;20061;-38
2022/05/10 00:52:05;;;;;;;3.80;2.40;;;16.70;99.90;;;;;;12474276;28;20049;-39
2022/05/10 00:58:29;;;;;;;5.95;2.50;;;16.80;99.90;;;;;;12475586;28;20053;-39
2022/05/10 01:04:47;;;;;;;7.03;2.97;;;16.60;99.90;;;;;;12447285;28;20049;-39
2022/05/10 01:11:01;;;;;;;5.75;3.10;;;16.60;99.90;;;;;;12476081;28;20596;-38
2022/05/10 01:17:04;;;;;;;6.87;3.03;;;16.30;99.90;;;;;;12476561;28;20398;-38
2022/05/10 01:23:19;;;;;;;5.13;3.10;;;16.00;99.90;;;;;;12478584;28;20426;-39
2022/05/10 01:29:36;;;;;;;8.45;3.80;;;15.40;99.90;;;;;;12478645;28;20076;-38
2022/05/10 01:35:45;;;;;;;7.70;3.33;;;15.20;99.90;;;;;;12483179;28;20041;-38
2022/05/10 01:41:50;;;;;;;8.75;3.47;;;15.10;99.90;;;;;;12482997;28;20045;-40
2022/05/10 01:47:59;;;;;;;8.25;3.60;;;15.10;99.90;;;;;;12483683;28;20061;-38
2022/05/10 01:54:02;;;;;;;10.23;3.85;;;15.10;99.90;;;;;;12479920;28;20804;-39
2022/05/10 02:00:17;;;;;;;6.68;3.47;;;15.20;99.90;;;;;;12482991;28;20049;-39
2022/05/10 02:06:29;;;;;;;7.07;3.38;;;15.10;99.90;;;;;;12479278;28;20505;-40
2022/05/10 02:12:52;;;;;;;6.15;3.20;;;15.00;99.90;;;;;;12477966;28;20143;-39
2022/05/10 02:18:59;;;;;;;7.35;2.95;;;14.90;99.90;;;;;;12479497;28;20068;-39
2022/05/10 02:25:19;;;;;;;5.55;3.25;;;15.00;99.90;;;;;;12478896;28;20050;-38
2022/05/10 02:31:26;;;;;;;4.82;2.72;;;15.00;99.90;;;;;;12479879;28;20049;-38
2022/05/10 02:37:28;;;;;;;7.30;2.95;;;15.10;99.90;;;;;;12477773;28;20049;-39
2022/05/10 02:43:34;;;;;;;5.85;2.90;;;15.30;99.90;;;;;;12477996;28;20049;-38
2022/05/10 02:49:38;;;;;;;5.45;3.25;;;15.40;99.90;;;;;;12482074;28;20053;-39
2022/05/10 02:56:03;;;;;;;4.82;2.78;;;15.60;99.90;;;;;;12479070;28;20061;-38
2022/05/10 03:02:22;;;;;;;6.38;3.20;;;15.70;99.90;;;;;;12475665;28;20041;-38
2022/05/10 03:08:24;;;;;;;6.30;3.15;;;15.80;99.90;;;;;;12476593;28;20129;-39
2022/05/10 03:14:26;;;;;;;6.80;3.00;;;15.90;99.90;;;;;;12474532;28;20107;-39
2022/05/10 03:20:28;;;;;;;7.05;3.08;;;15.80;99.90;;;;;;12480284;28;20498;-38
2022/05/10 03:26:31;;;;;;;4.82;3.00;;;15.90;99.90;;;;;;12475873;28;20099;-38
2022/05/10 03:32:33;;;;;;;5.93;3.00;;;15.80;99.90;;;;;;12475429;28;20056;-38
2022/05/10 03:38:36;;;;;;;6.60;3.37;;;15.80;99.90;;;;;;12476703;28;20045;-38
2022/05/10 03:44:38;;;;;;;6.85;3.75;;;15.80;99.90;;;;;;12477118;28;20041;-39
2022/05/10 03:50:40;;;;;;;11.77;4.97;;;15.60;99.90;;;;;;12475582;28;20045;-39
2022/05/10 03:56:43;;;;;;;8.00;4.25;;;15.10;99.90;;;;;;12474097;28;20053;-39
2022/05/10 04:02:45;;;;;;;7.35;3.50;;;14.90;99.90;;;;;;12473458;28;20049;-40
2022/05/10 04:08:47;;;;;;;7.28;3.90;;;14.80;99.90;;;;;;12471766;28;20517;-39
2022/05/10 04:14:52;;;;;;;9.38;4.20;;;14.60;99.90;;;;;;12475874;28;20612;-39
2022/05/10 04:20:54;;;;;;;10.45;4.03;;;14.40;99.90;;;;;;12471370;28;20151;-39
2022/05/10 04:26:56;;;;;;;6.75;4.00;;;14.30;99.90;;;;;;12472474;28;20103;-39
2022/05/10 04:32:58;;;;;;;5.38;4.05;;;14.30;99.90;;;;;;12474176;28;20042;-38
2022/05/10 04:39:00;;;;;;;7.88;3.97;;;14.30;99.90;;;;;;12471148;28;20046;-39
2022/05/10 04:45:02;;;;;;;9.93;4.10;;;14.30;99.90;;;;;;12472544;28;20118;-39
2022/05/10 04:51:05;;;;;;;5.70;3.80;;;14.30;99.90;;;;;;12472906;28;20099;-39
2022/05/10 04:57:07;;;;;;;7.55;4.45;;;14.30;99.90;;;;;;12473048;28;20042;-38
2022/05/10 05:03:10;;;;;;;7.30;3.92;;;14.40;99.90;;;;;;12474523;28;20049;-39
2022/05/10 05:09:12;;;;;;;7.65;3.55;;;14.40;99.90;;;;;;12478667;28;20057;-39
2022/05/10 05:15:14;;;;;;;7.97;3.92;;;14.60;99.90;;;;;;12484836;28;20148;-39
2022/05/10 05:21:22;;;;;;;9.27;4.75;;;15.10;99.90;;;;;;12482444;28;20049;-38
2022/05/10 05:27:24;;;;;;;10.68;4.75;;;15.50;99.90;;;;;;12483262;28;20141;-38
2022/05/10 05:33:27;;;;;;;8.65;3.67;;;15.50;99.90;;;;;;12482227;28;20053;-38
2022/05/10 05:39:29;;;;;;;5.13;3.42;;;15.60;99.90;;;;;;12484945;28;20555;-40
2022/05/10 05:45:31;;;;;;;6.53;4.05;;;15.90;99.90;;;;;;12479437;28;20042;-38
2022/05/10 05:51:32;;;;;;;5.35;4.03;;;16.10;99.90;;;;;;12484039;28;20899;-40
2022/05/10 05:57:36;;;;;;;5.85;3.50;;;16.30;99.90;;;;;;12482236;28;20053;-38
2022/05/10 06:03:38;;;;;;;6.13;4.00;;;16.40;99.90;;;;;;12480254;28;20557;-40
2022/05/10 06:09:44;;;;;;;8.98;3.90;;;16.60;99.90;;;;;;12485377;28;20061;-39
2022/05/10 06:15:46;;;;;;;;;;;16.80;99.90;;;;;;12484736;28;20427;-38
2022/05/10 06:21:49;;;;;;;9.35;3.40;;;17.00;99.90;;;;;;12479647;28;19925;-40
2022/05/10 06:27:53;;;;;;;7.03;4.00;;;17.20;99.90;;;;;;12479538;28;20041;-38
2022/05/10 06:33:54;;;;;;;6.40;3.67;;;17.20;99.90;;;;;;12479825;28;20041;-39
2022/05/10 06:39:56;;;;;;;7.32;3.45;;;17.30;99.90;;;;;;12482073;28;20050;-38
2022/05/10 06:45:58;;;;;;;7.15;3.50;;;17.30;99.90;;;;;;12477127;28;20041;-40
2022/05/10 06:52:01;;;;;;;6.88;4.60;;;17.30;99.90;;;;;;12477690;28;20045;-40
2022/05/10 06:58:03;;;;;;;5.60;4.03;;;17.40;99.90;;;;;;12473544;28;20149;-40
2022/05/10 07:04:07;;;;;;;8.40;3.83;;;17.50;99.90;;;;;;12483242;28;20073;-40
2022/05/10 07:10:11;;;;;;;11.73;4.07;;;17.60;99.90;;;;;;12481277;28;20132;-41
2022/05/10 07:16:13;;;;;;;6.18;4.28;;;17.80;99.90;;;;;;12485406;28;20140;-40
2022/05/10 07:22:15;;;;;;;6.70;4.50;;;18.00;99.90;;;;;;12483551;28;20114;-40
2022/05/10 07:28:18;;;;;;;8.13;4.45;;;18.20;99.90;;;;;;12480046;28;20045;-40
2022/05/10 07:34:20;;;;;;;7.30;4.47;;;18.40;99.90;;;;;;12478033;28;20073;-40
2022/05/10 07:40:22;;;;;;;10.00;4.65;;;18.70;99.90;;;;;;12482461;28;20834;-39
2022/05/10 07:46:26;;;;;;;9.95;4.30;;;18.80;99.90;;;;;;12484493;28;20064;-40
2022/05/10 07:52:28;;;;;;;7.97;4.22;;;18.90;99.90;;;;;;12479812;28;20160;-40
2022/05/10 07:58:30;;;;;;;6.47;4.32;;;19.00;99.90;;;;;;12480453;28;20124;-41
2022/05/10 08:04:33;;;;;;;12.40;4.32;;;19.20;99.90;;;;;;12479639;28;20116;-38
2022/05/10 08:10:36;;;;;;;7.50;4.03;;;19.10;99.90;;;;;;12479012;28;20501;-40
2022/05/10 08:16:38;;;;;;;9.60;4.47;;;19.30;99.90;;;;;;12478782;28;20620;-39
2022/05/10 08:22:48;;;;;;;9.52;4.57;;;19.50;99.90;;;;;;12484910;28;20057;-40
2022/05/10 08:28:51;;;;;;;;;;;19.60;99.90;;;;;;12485247;28;20494;-39
2022/05/10 08:34:58;;;;;;;8.35;4.82;;;19.70;99.90;;;;;;12483703;28;19925;-40
2022/05/10 08:41:10;;;;;;;8.85;4.97;;;19.80;99.90;;;;;;12478472;28;20088;-39
2022/05/10 08:47:14;;;;;;;7.28;4.85;;;20.00;99.90;;;;;;12482111;28;20046;-39
2022/05/10 08:53:18;;;;;;;7.57;4.72;;;20.30;99.90;;;;;;12481522;28;20409;-39
2022/05/10 08:59:25;;;;;;;9.25;4.53;;;20.60;99.90;;;;;;12480424;28;20522;-41
2022/05/10 09:05:28;;;;;;;7.55;5.00;;;20.80;99.90;;;;;;12476339;28;20406;-39
2022/05/10 09:11:42;;;;;;;9.77;5.17;;;21.00;99.90;;;;;;12478895;28;20466;-42
2022/05/10 09:17:44;;;;;;;8.10;4.50;;;21.20;99.90;;;;;;12469928;28;20140;-40
2022/05/10 09:23:55;;;;;;;6.40;4.82;;;21.40;99.90;;;;;;12470186;28;20345;-41
2022/05/10 09:29:57;;;;;;;6.90;4.80;;;21.90;99.90;;;;;;12466960;28;20049;-39
2022/05/10 09:35:59;;;;;;;7.90;5.00;;;22.20;99.90;;;;;;12462371;28;20045;-40
2022/05/10 09:42:01;;;;;;;8.70;5.43;;;22.40;99.90;;;;;;12468810;28;20139;-39
2022/05/10 09:48:09;;;;;;;9.88;5.10;;;22.50;99.90;;;;;;12472457;28;20091;-41
2022/05/10 09:54:22;;;;;;;10.05;5.22;;;22.40;99.90;;;;;;12472126;28;20128;-40
2022/05/10 10:00:44;;;;;;;;;;;22.50;99.90;;;;;;12477916;28;20068;-39
2022/05/10 10:07:13;;;;;;;10.48;4.40;;;22.70;99.90;;;;;;12473647;28;19932;-40
2022/05/10 10:13:33;;;;;;;8.90;4.22;;;22.90;99.90;;;;;;12478466;28;20089;-40
2022/05/10 10:19:46;;;;;;;6.45;4.35;;;23.10;99.90;;;;;;12475068;28;20110;-38
2022/05/10 10:25:48;;;;;;;6.47;4.50;;;23.40;99.90;;;;;;12458772;28;20413;-39
2022/05/10 10:32:06;;;;;;;7.50;4.00;;;23.40;99.90;;;;;;12459038;28;20129;-39
2022/05/10 10:38:42;;;;;;;6.35;4.20;;;23.40;99.90;;;;;;12476270;28;20516;-39
2022/05/10 10:44:50;;;;;;;6.57;4.10;;;24.00;99.90;;;;;;12474250;28;20084;-41
2022/05/10 10:50:53;;;;;;;6.53;3.90;;;24.20;99.90;;;;;;12477095;28;20145;-40
2022/05/10 10:57:25;;;;;;;6.47;3.80;;;24.10;99.90;;;;;;12473934;28;20049;-41
2022/05/10 11:03:45;;;;;;;5.90;2.75;;;24.30;99.90;;;;;;12470928;28;20332;-39
2022/05/10 11:10:05;;;;;;;8.13;3.10;;;24.10;99.90;;;;;;12474880;28;20064;-39
2022/05/10 11:16:25;;;;;;;4.78;2.70;;;24.50;99.90;;;;;;12472674;28;20241;-41
2022/05/10 11:22:40;;;;;;;5.30;2.65;;;24.40;99.90;;;;;;12469162;28;20064;-42
2022/05/10 11:29:19;;;;;;;6.28;3.00;;;24.10;99.90;;;;;;12469841;28;20046;-39
2022/05/10 11:35:33;;;;;;;4.45;2.90;;;24.10;99.90;;;;;;12470769;28;20087;-41
2022/05/10 11:41:59;;;;;;;5.43;2.60;;;24.10;99.90;;;;;;12473411;28;20077;-39
2022/05/10 11:48:26;;;;;;;7.10;3.17;;;24.00;99.90;;;;;;12471618;28;20080;-39
2022/05/10 11:54:46;;;;;;;7.97;2.88;;;24.00;99.90;;;;;;12468641;28;20501;-40
2022/05/10 12:00:55;;;;;;;3.33;2.50;;;23.80;99.90;;;;;;12467040;28;20084;-41
2022/05/10 12:07:20;;;;;;;6.32;2.80;;;23.60;99.90;;;;;;12473394;28;20132;-39
2022/05/10 12:26:36;;;;;;;8.02;2.95;;;23.20;99.90;;;;;;12472115;28;20056;-38
2022/05/10 12:32:42;;;;;;;4.88;2.58;;;23.10;99.90;;;;;;12471068;28;20056;-39
2022/05/10 12:38:49;;;;;;;7.13;2.92;;;23.20;99.90;;;;;;12471770;28;20544;-39
2022/05/10 12:45:00;;;;;;;6.30;3.00;;;23.20;99.90;;;;;;12471418;28;20081;-41
2022/05/10 12:51:34;;;;;;;6.28;2.70;;;23.40;99.90;;;;;;12472382;28;20053;-42
2022/05/10 12:57:41;;;;;;;7.40;2.78;;;23.50;99.90;;;;;;12470977;28;20634;-42
2022/05/10 13:03:51;;;;;;;9.05;2.70;;;23.40;99.90;;;;;;12470640;28;20080;-39
2022/05/10 13:09:57;;;;;;;7.32;2.47;;;23.40;99.90;;;;;;12477044;28;20140;-40
2022/05/10 13:16:02;;;;;;;4.38;2.50;;;23.90;99.90;;;;;;12473552;28;20110;-40
2022/05/10 13:22:12;;;;;;;6.38;2.53;;;24.40;99.90;;;;;;12455628;28;20393;-40
2022/05/10 13:28:15;;;;;;;6.88;2.70;;;24.70;99.90;;;;;;12477753;28;20132;-38
2022/05/10 13:34:19;;;;;;;8.35;2.90;;;25.10;99.90;;;;;;12482538;28;20048;-38
2022/05/10 13:40:42;;;;;;;5.15;2.65;;;24.80;99.90;;;;;;12480828;28;20156;-38
2022/05/10 13:46:52;;;;;;;6.88;2.67;;;24.60;99.90;;;;;;12480654;28;20435;-40
2022/05/10 13:52:59;;;;;;;5.05;3.00;;;24.30;99.90;;;;;;12480376;28;20176;-41
2022/05/10 13:59:01;;;;;;;7.55;3.03;;;24.10;99.90;;;;;;12482397;28;20052;-40
2022/05/10 14:05:17;;;;;;;7.20;2.90;;;23.90;99.90;;;;;;12478834;28;20072;-39
2022/05/10 14:11:19;;;;;;;4.70;2.30;;;23.70;99.90;;;;;;12480249;28;20045;-40
2022/05/10 14:17:21;;;;;;;8.38;2.80;;;23.60;99.90;;;;;;12481984;28;20091;-40
2022/05/10 14:23:24;;;;;;;7.72;2.83;;;23.40;99.90;;;;;;12478593;28;20053;-42
2022/05/10 14:29:48;;;;;;;4.50;2.70;;;23.40;99.90;;;;;;12473992;28;20065;-39
2022/05/10 14:36:03;;;;;;;6.55;2.90;;;23.20;99.90;;;;;;12474900;28;20052;-41
2022/05/10 14:42:06;;;;;;;8.93;3.20;;;23.20;99.90;;;;;;12474723;28;20073;-40
2022/05/10 14:48:26;;;;;;;6.13;3.50;;;23.30;99.90;;;;;;12480413;28;20045;-39
2022/05/10 14:54:35;;;;;;;7.53;4.10;;;23.20;99.90;;;;;;12474982;28;20076;-41
2022/05/10 15:00:40;;;;;;;5.30;4.07;;;23.10;99.90;;;;;;12474848;28;20060;-42
2022/05/10 15:06:43;;;;;;;8.68;3.67;;;23.10;99.90;;;;;;12476788;28;20417;-40
2022/05/10 15:13:03;;;;;;;13.88;4.00;;;23.00;99.90;;;;;;12476243;28;20057;-39
2022/05/10 15:19:05;;;;;;;5.70;3.65;;;23.00;99.90;;;;;;12481190;28;20482;-42
2022/05/10 15:25:08;;;;;;;8.40;2.80;;;23.00;99.90;;;;;;12474739;28;20053;-40
2022/05/10 15:31:10;;;;;;;6.00;3.40;;;23.10;99.90;;;;;;12476673;28;20095;-42
2022/05/10 15:37:16;;;;;;;9.85;3.38;;;23.10;99.90;;;;;;12481061;28;20049;-39
2022/05/10 15:43:18;;;;;;;5.45;2.60;;;23.20;99.90;;;;;;12473893;28;20052;-39
2022/05/10 15:49:20;;;;;;;6.20;3.92;;;23.40;99.90;;;;;;12472286;28;20056;-41
2022/05/10 15:55:22;;;;;;;6.63;2.95;;;23.40;99.90;;;;;;12475229;28;20490;-39
2022/05/10 16:01:25;;;;;;;5.63;2.53;;;23.30;99.90;;;;;;12474429;28;20087;-42
2022/05/10 16:07:40;;;;;;;6.00;3.65;;;23.20;99.90;;;;;;12472571;28;20064;-39
2022/05/10 16:13:42;;;;;;;6.60;3.08;;;23.20;99.90;;;;;;12473009;28;20106;-40
2022/05/10 16:19:44;;;;;;;7.00;3.00;;;23.40;99.90;;;;;;12476443;28;20490;-39
2022/05/10 16:25:47;;;;;;;6.65;2.72;;;23.30;99.90;;;;;;12477428;28;20430;-38
2022/05/10 16:31:49;;;;;;;8.13;2.90;;;23.20;99.90;;;;;;12470322;28;20049;-40
2022/05/10 16:37:51;;;;;;;6.47;2.50;;;23.20;99.90;;;;;;12475420;28;20102;-41
2022/05/10 16:43:54;;;;;;;4.70;2.80;;;23.20;99.90;;;;;;12475809;28;20056;-40
2022/05/10 16:49:56;;;;;;;5.13;2.75;;;23.20;99.90;;;;;;12475988;28;20422;-42
2022/05/10 16:55:59;;;;;;;5.82;3.08;;;23.00;99.90;;;;;;12475520;28;20053;-41
2022/05/10 17:02:04;;;;;;;7.65;2.90;;;23.00;99.90;;;;;;12515089;22;20044;-80
2022/05/10 17:08:06;;;;;;;5.13;2.75;;;22.80;99.90;;;;;;12522112;28;20049;-78
2022/05/10 17:14:09;;;;;;;4.85;2.90;;;22.80;99.90;;;;;;12511998;28;20048;-80
2022/05/10 17:20:14;;;;;;;4.65;2.42;;;22.70;99.90;;;;;;12518199;28;20106;-82
2022/05/10 17:26:16;;;;;;;6.10;2.95;;;22.70;99.90;;;;;;12541013;28;20060;-78
2022/05/10 17:32:18;;;;;;;6.55;2.58;;;22.60;99.90;;;;;;12523931;28;20091;-79
2022/05/10 17:38:20;;;;;;;6.10;2.83;;;22.50;99.90;;;;;;12523922;28;20083;-78
2022/05/10 17:44:22;;;;;;;7.73;3.40;;;22.50;99.90;;;;;;12514351;28;20489;-77
2022/05/10 17:50:24;;;;;;;5.03;2.60;;;22.40;99.90;;;;;;12518753;28;20041;-78
2022/05/10 17:56:28;;;;;;;7.40;2.63;;;22.50;99.90;;;;;;12521936;28;20065;-78
2022/05/10 18:02:30;;;;;;;15.10;3.20;;;22.30;99.90;;;;;;12563646;28;20052;-80
2022/05/10 18:08:34;;;;;;;7.97;2.88;;;22.20;99.90;;;;;;12569650;28;20109;-78
2022/05/10 18:14:35;;;;;;;5.93;3.00;;;22.10;99.90;;;;;;12550191;28;20087;-79
2022/05/10 18:20:39;;;;;;;6.25;2.92;;;22.00;99.90;;;;;;12553132;28;20051;-78
2022/05/10 18:26:41;;;;;;;;;;;21.90;99.90;;;;;;12563334;28;20052;-80
2022/05/10 18:32:45;;;;;;;9.52;3.17;;;21.80;99.90;;;;;;12553169;28;19931;-78
2022/05/10 18:38:47;;;;;;;5.13;3.10;;;21.70;99.90;;;;;;12548957;28;20061;-79
2022/05/10 18:44:50;;;;;;;9.15;3.20;;;21.70;99.90;;;;;;12553303;28;20106;-81
2022/05/10 18:50:52;;;;;;;7.47;2.83;;;21.50;99.90;;;;;;12564095;28;20134;-79
2022/05/10 18:56:54;;;;;;;14.70;4.93;;;21.40;99.90;;;;;;12556607;28;20184;-79
2022/05/10 19:02:56;;;;;;;12.38;4.82;;;21.20;99.90;;;;;;12544451;28;20056;-80
2022/05/10 19:08:58;;;;;;;11.82;5.15;;;20.60;99.90;;;;;;12571415;28;20040;-80
2022/05/10 19:15:00;;;;;;;10.20;5.32;;;20.20;99.90;;;;;;12545503;28;20041;-79
2022/05/10 19:21:03;;;;;;;8.13;5.45;;;20.00;99.90;;;;;;12567702;28;20052;-79
2022/05/10 19:27:05;;;;;;;12.02;5.28;;;19.80;99.90;;;;;;12572533;28;20083;-81
2022/05/10 19:33:07;;;;;;;12.43;5.50;;;19.50;99.90;;;;;;12582153;28;20032;-80
2022/05/10 19:39:11;;;;;;;8.27;6.07;;;19.20;99.90;;;;;;12558146;28;20048;-80
2022/05/10 19:45:13;;;;;;;11.90;5.82;;;18.90;99.90;;;;;;12568988;28;20101;-80
2022/05/10 19:51:16;;;;;;;9.50;5.32;;;18.90;99.90;;;;;;12570287;28;20094;-80
2022/05/10 19:57:18;;;;;;;10.10;5.00;;;18.70;99.90;;;;;;12569428;28;20044;-81
2022/05/10 20:09:41;;;;;;;8.52;4.57;;;18.80;99.90;;;;;;12569816;28;20124;-80
2022/05/10 20:15:43;;;;;;;10.27;4.88;;;18.70;99.90;;;;;;12556150;28;20088;-80
2022/05/10 20:21:45;;;;;;;11.20;4.50;;;18.50;99.90;;;;;;12552576;28;20040;-80
2022/05/10 20:27:53;;;;;;;9.02;4.15;;;18.40;99.90;;;;;;12561612;28;20048;-80
2022/05/10 20:34:00;;;;;;;10.38;4.78;;;18.10;99.90;;;;;;12562675;28;20191;-80
2022/05/10 20:40:02;;;;;;;11.45;5.05;;;18.30;99.90;;;;;;12565975;28;20063;-80
2022/05/10 20:46:04;;;;;;;8.23;5.60;;;18.10;99.90;;;;;;12562586;28;20048;-80
2022/05/10 20:52:07;;;;;;;8.15;5.22;;;18.10;99.90;;;;;;12568321;28;20055;-80
2022/05/10 20:58:09;;;;;;;11.70;6.30;;;17.90;99.90;;;;;;12553257;28;20047;-80
2022/05/10 21:04:11;;;;;;;11.88;6.03;;;17.60;99.90;;;;;;12573324;28;20040;-80
2022/05/10 21:10:13;;;;;;;10.50;6.10;;;17.50;99.90;;;;;;12566196;28;20105;-80
2022/05/10 21:16:15;;;;;;;10.43;5.70;;;17.30;99.90;;;;;;12573627;28;20109;-81
2022/05/10 21:22:17;;;;;;;9.35;5.97;;;17.20;99.90;;;;;;12548665;28;20051;-80
2022/05/10 21:28:19;;;;;;;10.52;6.13;;;16.90;99.90;;;;;;12571274;28;20519;-81
2022/05/10 21:34:20;;;;;;;12.07;6.45;;;16.80;99.90;;;;;;12568087;28;20496;-79
2022/05/10 21:40:23;;;;;;;9.52;6.15;;;16.70;99.90;;;;;;12562252;28;22918;-81
2022/05/10 21:46:25;;;;;;;9.67;6.13;;;16.80;99.90;;;;;;12558414;28;20084;-79
2022/05/10 21:52:27;;;;;;;10.98;6.40;;;16.80;99.90;;;;;;12575400;28;20076;-80
2022/05/10 21:58:30;;;;;;;11.20;6.20;;;16.90;99.90;;;;;;12557789;28;20082;-80
2022/05/10 22:04:33;;;;;;;10.80;5.68;;;16.80;99.90;;;;;;12568061;28;20500;-81
2022/05/10 22:10:36;;;;;;;10.25;5.97;;;16.80;99.90;;;;;;12570653;28;20192;-80
2022/05/10 22:16:38;;;;;;;9.63;5.85;;;16.60;99.90;;;;;;12561033;28;20117;-80
2022/05/10 22:22:40;;;;;;;8.32;5.85;;;16.60;99.90;;;;;;12569919;28;20566;-80
2022/05/10 22:28:42;;;;;;;7.03;4.82;;;16.70;99.90;;;;;;12570431;28;20048;-80
2022/05/10 22:34:43;;;;;;;8.98;4.88;;;16.60;99.90;;;;;;12558823;28;20109;-80
2022/05/10 22:40:51;;;;;;;8.63;4.75;;;16.80;99.90;;;;;;12602655;28;20096;-80
2022/05/10 22:46:53;;;;;;;9.18;4.95;;;16.90;99.90;;;;;;12580924;28;20056;-81
2022/05/10 22:52:55;;;;;;;10.10;5.03;;;16.90;99.90;;;;;;12572978;28;20044;-80
2022/05/10 22:58:56;;;;;;;7.07;4.43;;;17.10;99.90;;;;;;12553113;28;20452;-80
2022/05/10 23:05:00;;;;;;;8.82;3.95;;;17.00;99.90;;;;;;12567272;28;21016;-81
2022/05/10 23:11:02;;;;;;;10.87;3.80;;;17.10;99.90;;;;;;12563056;28;20048;-80
2022/05/10 23:17:05;;;;;;;8.48;3.78;;;17.00;99.90;;;;;;12555919;28;20048;-81
2022/05/10 23:23:08;;;;;;;4.53;3.28;;;16.90;99.90;;;;;;12566300;28;20475;-80
2022/05/10 23:29:11;;;;;;;4.57;3.57;;;16.90;99.90;;;;;;12533855;28;20079;-79
2022/05/10 23:35:13;;;;;;;7.53;3.28;;;16.90;99.90;;;;;;12555118;28;20041;-79
2022/05/10 23:41:15;;;;;;;5.57;2.83;;;16.70;99.90;;;;;;12564626;28;20048;-79
2022/05/10 23:47:17;;;;;;;5.93;3.33;;;16.70;99.90;;;;;;12564227;28;20140;-80
2022/05/10 23:53:20;;;;;;;9.00;3.63;;;16.60;99.90;;;;;;12568740;28;20044;-79
2022/05/10 23:59:22;;;;;;;8.65;3.90;;;16.60;99.90;;;;;;12564703;28;20105;-79
